sensor_id;sensor_type;location;lat;lon;timestamp;temperature;humidity
13686;DHT22;6915;48.296;8.874;2023-11-18T00:00:38;4.00;99.90
13686;DHT22;6915;48.296;8.874;2023-11-18T00:03:05;4.10;99.90
13686;DHT22;6915;48.296;8.874;2023-11-18T00:05:32;4.10;99.90
13686;DHT22;6915;48.296;8.874;2023-11-18T00:08:00;4.10;99.90
13686;DHT22;6915;48.296;8.874;2023-11-18T00:10:27;4.00;99.90
13686;DHT22;6915;48.296;8.874;2023-11-18T00:12:54;4.00;99.90
13686;DHT22;6915;48.296;8.874;2023-11-18T00:15:21;3.90;99.90
13686;DHT22;6915;48.296;8.874;2023-11-18T00:17:48;4.10;99.90
13686;DHT22;6915;48.296;8.874;2023-11-18T00:20:15;4.00;99.90
13686;DHT22;6915;48.296;8.874;2023-11-18T00:22:42;3.90;99.90
13686;DHT22;6915;48.296;8.874;2023-11-18T00:25:11;3.90;99.90
13686;DHT22;6915;48.296;8.874;2023-11-18T00:27:39;4.10;99.90
13686;DHT22;6915;48.296;8.874;2023-11-18T00:30:07;4.10;99.90
13686;DHT22;6915;48.296;8.874;2023-11-18T00:32:36;4.00;99.90
13686;DHT22;6915;48.296;8.874;2023-11-18T00:35:04;4.10;99.90
13686;DHT22;6915;48.296;8.874;2023-11-18T00:37:31;4.00;99.90
13686;DHT22;6915;48.296;8.874;2023-11-18T00:39:58;4.00;99.90
13686;DHT22;6915;48.296;8.874;2023-11-18T00:42:27;4.00;99.90
13686;DHT22;6915;48.296;8.874;2023-11-18T00:44:53;4.10;99.90
13686;DHT22;6915;48.296;8.874;2023-11-18T00:47:23;4.20;99.90
13686;DHT22;6915;48.296;8.874;2023-11-18T00:49:49;4.00;99.90
13686;DHT22;6915;48.296;8.874;2023-11-18T00:52:18;4.00;99.90
13686;DHT22;6915;48.296;8.874;2023-11-18T00:54:45;3.80;99.90
13686;DHT22;6915;48.296;8.874;2023-11-18T00:57:12;3.90;99.90
13686;DHT22;6915;48.296;8.874;2023-11-18T00:59:43;4.10;99.90
13686;DHT22;6915;48.296;8.874;2023-11-18T01:02:10;4.00;99.90
13686;DHT22;6915;48.296;8.874;2023-11-18T01:04:37;4.00;99.90
13686;DHT22;6915;48.296;8.874;2023-11-18T01:07:04;4.00;99.90
13686;DHT22;6915;48.296;8.874;2023-11-18T01:09:31;4.10;99.90
13686;DHT22;6915;48.296;8.874;2023-11-18T01:12:05;4.10;99.90
13686;DHT22;6915;48.296;8.874;2023-11-18T01:14:35;4.10;99.90
13686;DHT22;6915;48.296;8.874;2023-11-18T01:17:05;4.10;99.90
13686;DHT22;6915;48.296;8.874;2023-11-18T01:19:32;4.10;99.90
13686;DHT22;6915;48.296;8.874;2023-11-18T01:21:59;4.10;99.90
13686;DHT22;6915;48.296;8.874;2023-11-18T01:24:26;4.10;99.90
13686;DHT22;6915;48.296;8.874;2023-11-18T01:26:53;4.10;99.90
13686;DHT22;6915;48.296;8.874;2023-11-18T01:29:20;4.10;99.90
13686;DHT22;6915;48.296;8.874;2023-11-18T01:31:47;4.10;99.90
13686;DHT22;6915;48.296;8.874;2023-11-18T01:34:16;4.10;99.90
13686;DHT22;6915;48.296;8.874;2023-11-18T01:36:44;4.00;99.90
13686;DHT22;6915;48.296;8.874;2023-11-18T01:39:11;4.00;99.90
13686;DHT22;6915;48.296;8.874;2023-11-18T01:41:38;3.90;99.90
13686;DHT22;6915;48.296;8.874;2023-11-18T01:44:05;4.00;99.90
13686;DHT22;6915;48.296;8.874;2023-11-18T01:46:33;4.00;99.90
13686;DHT22;6915;48.296;8.874;2023-11-18T01:49:01;4.00;99.90
13686;DHT22;6915;48.296;8.874;2023-11-18T01:51:30;4.00;99.90
13686;DHT22;6915;48.296;8.874;2023-11-18T01:53:59;4.00;99.90
13686;DHT22;6915;48.296;8.874;2023-11-18T01:56:27;4.00;99.90
13686;DHT22;6915;48.296;8.874;2023-11-18T01:58:54;4.00;99.90
13686;DHT22;6915;48.296;8.874;2023-11-18T02:01:24;4.00;99.90
13686;DHT22;6915;48.296;8.874;2023-11-18T02:03:52;4.00;99.90
13686;DHT22;6915;48.296;8.874;2023-11-18T02:06:19;4.00;99.90
13686;DHT22;6915;48.296;8.874;2023-11-18T02:08:48;4.00;99.90
13686;DHT22;6915;48.296;8.874;2023-11-18T02:11:20;4.00;99.90
13686;DHT22;6915;48.296;8.874;2023-11-18T02:13:53;4.00;99.90
13686;DHT22;6915;48.296;8.874;2023-11-18T02:16:21;3.90;99.90
13686;DHT22;6915;48.296;8.874;2023-11-18T02:18:49;4.00;99.90
13686;DHT22;6915;48.296;8.874;2023-11-18T02:21:17;3.90;99.90
13686;DHT22;6915;48.296;8.874;2023-11-18T02:23:44;3.90;99.90
13686;DHT22;6915;48.296;8.874;2023-11-18T02:26:22;3.80;99.90
13686;DHT22;6915;48.296;8.874;2023-11-18T02:28:49;3.70;99.90
13686;DHT22;6915;48.296;8.874;2023-11-18T02:31:22;3.70;99.90
13686;DHT22;6915;48.296;8.874;2023-11-18T02:33:53;3.80;99.90
13686;DHT22;6915;48.296;8.874;2023-11-18T02:36:26;3.70;99.90
13686;DHT22;6915;48.296;8.874;2023-11-18T02:39:01;3.80;99.90
13686;DHT22;6915;48.296;8.874;2023-11-18T02:41:35;3.70;99.90
13686;DHT22;6915;48.296;8.874;2023-11-18T02:44:03;3.60;99.90
13686;DHT22;6915;48.296;8.874;2023-11-18T02:46:34;3.80;99.90
13686;DHT22;6915;48.296;8.874;2023-11-18T02:49:01;3.80;99.90
13686;DHT22;6915;48.296;8.874;2023-11-18T02:51:29;3.80;99.90
13686;DHT22;6915;48.296;8.874;2023-11-18T02:53:56;3.80;99.90
13686;DHT22;6915;48.296;8.874;2023-11-18T02:56:22;3.80;99.90
13686;DHT22;6915;48.296;8.874;2023-11-18T02:58:50;3.80;99.90
13686;DHT22;6915;48.296;8.874;2023-11-18T03:01:17;4.00;99.90
13686;DHT22;6915;48.296;8.874;2023-11-18T03:03:45;3.80;99.90
13686;DHT22;6915;48.296;8.874;2023-11-18T03:06:11;3.70;99.90
13686;DHT22;6915;48.296;8.874;2023-11-18T03:08:38;3.70;99.90
13686;DHT22;6915;48.296;8.874;2023-11-18T03:11:07;3.70;99.90
13686;DHT22;6915;48.296;8.874;2023-11-18T03:13:34;3.80;99.90
13686;DHT22;6915;48.296;8.874;2023-11-18T03:16:07;3.60;99.90
13686;DHT22;6915;48.296;8.874;2023-11-18T03:18:37;3.60;99.90
13686;DHT22;6915;48.296;8.874;2023-11-18T03:21:05;3.70;99.90
13686;DHT22;6915;48.296;8.874;2023-11-18T03:23:33;3.60;99.90
13686;DHT22;6915;48.296;8.874;2023-11-18T03:25:59;3.60;99.90
13686;DHT22;6915;48.296;8.874;2023-11-18T08:42:13;3.10;99.90
13686;DHT22;6915;48.296;8.874;2023-11-18T08:49:09;3.30;99.90
13686;DHT22;6915;48.296;8.874;2023-11-18T08:51:40;3.30;99.90
13686;DHT22;6915;48.296;8.874;2023-11-18T08:54:11;3.60;99.90
13686;DHT22;6915;48.296;8.874;2023-11-18T08:56:54;3.70;99.90
13686;DHT22;6915;48.296;8.874;2023-11-18T09:02:48;3.70;99.90
13686;DHT22;6915;48.296;8.874;2023-11-18T09:05:18;3.90;99.90
13686;DHT22;6915;48.296;8.874;2023-11-18T09:08:09;4.00;99.90
13686;DHT22;6915;48.296;8.874;2023-11-18T09:10:40;4.20;99.90
13686;DHT22;6915;48.296;8.874;2023-11-18T09:16:26;4.40;99.90
13686;DHT22;6915;48.296;8.874;2023-11-18T09:18:56;4.50;99.90
13686;DHT22;6915;48.296;8.874;2023-11-18T09:21:25;4.70;99.90
13686;DHT22;6915;48.296;8.874;2023-11-18T14:52:57;6.40;99.90
13686;DHT22;6915;48.296;8.874;2023-11-18T14:55:37;6.50;99.90
13686;DHT22;6915;48.296;8.874;2023-11-18T14:58:48;6.50;99.90
13686;DHT22;6915;48.296;8.874;2023-11-18T15:03:10;6.30;99.90
13686;DHT22;6915;48.296;8.874;2023-11-18T15:05:36;6.10;99.90
13686;DHT22;6915;48.296;8.874;2023-11-18T15:18:38;6.00;99.90
13686;DHT22;6915;48.296;8.874;2023-11-18T15:21:15;6.00;99.90
13686;DHT22;6915;48.296;8.874;2023-11-18T15:31:52;6.00;99.90
13686;DHT22;6915;48.296;8.874;2023-11-18T15:34:20;6.00;99.90
13686;DHT22;6915;48.296;8.874;2023-11-18T15:39:43;5.80;99.90
13686;DHT22;6915;48.296;8.874;2023-11-18T15:42:16;5.80;99.90
13686;DHT22;6915;48.296;8.874;2023-11-18T15:44:46;5.80;99.90
13686;DHT22;6915;48.296;8.874;2023-11-18T16:10:36;5.60;99.90
13686;DHT22;6915;48.296;8.874;2023-11-18T16:13:03;5.60;99.90
13686;DHT22;6915;48.296;8.874;2023-11-18T16:15:43;5.60;99.90
13686;DHT22;6915;48.296;8.874;2023-11-18T16:23:19;5.70;99.90
13686;DHT22;6915;48.296;8.874;2023-11-18T16:25:48;5.80;99.90
13686;DHT22;6915;48.296;8.874;2023-11-18T16:28:14;5.70;99.90
13686;DHT22;6915;48.296;8.874;2023-11-18T16:30:40;5.80;99.90
13686;DHT22;6915;48.296;8.874;2023-11-18T16:33:07;5.80;99.90
13686;DHT22;6915;48.296;8.874;2023-11-18T16:35:34;5.80;99.90
13686;DHT22;6915;48.296;8.874;2023-11-18T16:38:01;5.80;99.90
13686;DHT22;6915;48.296;8.874;2023-11-18T16:40:28;5.80;99.90
13686;DHT22;6915;48.296;8.874;2023-11-18T16:43:00;6.00;99.90
13686;DHT22;6915;48.296;8.874;2023-11-18T16:45:27;5.90;99.90
13686;DHT22;6915;48.296;8.874;2023-11-18T16:47:54;5.80;99.90
13686;DHT22;6915;48.296;8.874;2023-11-18T16:50:22;5.80;99.90
13686;DHT22;6915;48.296;8.874;2023-11-18T16:52:49;5.90;99.90
13686;DHT22;6915;48.296;8.874;2023-11-18T16:55:16;5.90;99.90
13686;DHT22;6915;48.296;8.874;2023-11-18T16:57:43;5.90;99.90
13686;DHT22;6915;48.296;8.874;2023-11-18T17:00:13;5.90;99.90
13686;DHT22;6915;48.296;8.874;2023-11-18T17:02:49;5.90;99.90
13686;DHT22;6915;48.296;8.874;2023-11-18T17:05:16;5.90;99.90
13686;DHT22;6915;48.296;8.874;2023-11-18T17:07:44;5.90;99.90
13686;DHT22;6915;48.296;8.874;2023-11-18T17:10:11;6.00;99.90
13686;DHT22;6915;48.296;8.874;2023-11-18T17:12:38;5.90;99.90
13686;DHT22;6915;48.296;8.874;2023-11-18T17:15:06;6.00;99.90
13686;DHT22;6915;48.296;8.874;2023-11-18T17:17:40;6.00;99.90
13686;DHT22;6915;48.296;8.874;2023-11-18T17:20:08;6.00;99.90
13686;DHT22;6915;48.296;8.874;2023-11-18T17:22:36;6.00;99.90
13686;DHT22;6915;48.296;8.874;2023-11-18T17:25:05;6.00;99.90
13686;DHT22;6915;48.296;8.874;2023-11-18T17:27:35;6.00;99.90
13686;DHT22;6915;48.296;8.874;2023-11-18T17:30:03;6.00;99.90
13686;DHT22;6915;48.296;8.874;2023-11-18T17:32:31;6.10;99.90
13686;DHT22;6915;48.296;8.874;2023-11-18T17:34:59;6.10;99.90
13686;DHT22;6915;48.296;8.874;2023-11-18T17:37:26;6.10;99.90
13686;DHT22;6915;48.296;8.874;2023-11-18T17:39:53;6.10;99.90
13686;DHT22;6915;48.296;8.874;2023-11-18T17:42:19;6.20;99.90
13686;DHT22;6915;48.296;8.874;2023-11-18T17:44:46;6.20;99.90
13686;DHT22;6915;48.296;8.874;2023-11-18T17:47:14;6.30;99.90
13686;DHT22;6915;48.296;8.874;2023-11-18T17:49:41;6.30;99.90
13686;DHT22;6915;48.296;8.874;2023-11-18T17:52:09;6.30;99.90
13686;DHT22;6915;48.296;8.874;2023-11-18T17:54:36;6.20;99.90
13686;DHT22;6915;48.296;8.874;2023-11-18T17:57:03;6.20;99.90
13686;DHT22;6915;48.296;8.874;2023-11-18T17:59:30;6.20;99.90
13686;DHT22;6915;48.296;8.874;2023-11-18T18:01:57;6.50;99.90
13686;DHT22;6915;48.296;8.874;2023-11-18T18:04:23;6.30;99.90
13686;DHT22;6915;48.296;8.874;2023-11-18T18:06:51;6.30;99.90
13686;DHT22;6915;48.296;8.874;2023-11-18T18:09:19;6.30;99.90
13686;DHT22;6915;48.296;8.874;2023-11-18T18:11:49;6.30;99.90
13686;DHT22;6915;48.296;8.874;2023-11-18T18:14:16;6.40;99.90
13686;DHT22;6915;48.296;8.874;2023-11-18T18:16:43;6.40;99.90
13686;DHT22;6915;48.296;8.874;2023-11-18T18:19:10;6.50;99.90
13686;DHT22;6915;48.296;8.874;2023-11-18T18:21:37;6.50;99.90
13686;DHT22;6915;48.296;8.874;2023-11-18T18:24:04;6.60;99.90
13686;DHT22;6915;48.296;8.874;2023-11-18T18:26:32;6.60;99.90
13686;DHT22;6915;48.296;8.874;2023-11-18T18:28:59;6.70;99.90
13686;DHT22;6915;48.296;8.874;2023-11-18T18:31:26;6.70;99.90
13686;DHT22;6915;48.296;8.874;2023-11-18T18:33:53;6.60;99.90
13686;DHT22;6915;48.296;8.874;2023-11-18T18:36:20;6.70;99.90
13686;DHT22;6915;48.296;8.874;2023-11-18T18:38:47;6.70;99.90
13686;DHT22;6915;48.296;8.874;2023-11-18T18:41:15;6.70;99.90
13686;DHT22;6915;48.296;8.874;2023-11-18T18:43:43;6.80;99.90
13686;DHT22;6915;48.296;8.874;2023-11-18T18:46:10;6.80;99.90
13686;DHT22;6915;48.296;8.874;2023-11-18T18:48:37;6.80;99.90
13686;DHT22;6915;48.296;8.874;2023-11-18T18:51:05;6.80;99.90
13686;DHT22;6915;48.296;8.874;2023-11-18T18:53:32;7.00;99.90
13686;DHT22;6915;48.296;8.874;2023-11-18T18:55:58;7.00;99.90
13686;DHT22;6915;48.296;8.874;2023-11-18T18:58:25;7.10;99.90
13686;DHT22;6915;48.296;8.874;2023-11-18T19:00:53;7.10;99.90
13686;DHT22;6915;48.296;8.874;2023-11-18T19:03:20;7.10;99.90
13686;DHT22;6915;48.296;8.874;2023-11-18T19:05:47;7.20;99.90
13686;DHT22;6915;48.296;8.874;2023-11-18T19:08:15;7.40;99.90
13686;DHT22;6915;48.296;8.874;2023-11-18T19:10:46;7.30;99.90
13686;DHT22;6915;48.296;8.874;2023-11-18T21:22:41;9.10;99.90
13686;DHT22;6915;48.296;8.874;2023-11-18T21:25:09;9.10;99.90
13686;DHT22;6915;48.296;8.874;2023-11-18T21:27:37;9.00;99.90
13686;DHT22;6915;48.296;8.874;2023-11-18T21:30:05;9.10;99.90
13686;DHT22;6915;48.296;8.874;2023-11-18T21:32:35;9.10;99.90
13686;DHT22;6915;48.296;8.874;2023-11-18T21:40:33;8.90;99.90
13686;DHT22;6915;48.296;8.874;2023-11-18T21:43:01;8.90;99.90
13686;DHT22;6915;48.296;8.874;2023-11-18T21:45:33;8.70;99.90
13686;DHT22;6915;48.296;8.874;2023-11-18T21:48:03;8.60;99.90
13686;DHT22;6915;48.296;8.874;2023-11-18T21:51:11;8.40;99.90
13686;DHT22;6915;48.296;8.874;2023-11-18T21:53:40;8.40;99.90
13686;DHT22;6915;48.296;8.874;2023-11-18T21:56:41;8.50;99.90
13686;DHT22;6915;48.296;8.874;2023-11-18T21:59:26;8.60;99.90
13686;DHT22;6915;48.296;8.874;2023-11-18T22:02:15;8.50;99.90
13686;DHT22;6915;48.296;8.874;2023-11-18T22:04:51;8.60;99.90
13686;DHT22;6915;48.296;8.874;2023-11-18T22:07:18;8.40;99.90
13686;DHT22;6915;48.296;8.874;2023-11-18T22:09:48;8.60;99.90
13686;DHT22;6915;48.296;8.874;2023-11-18T22:12:43;8.60;99.90
13686;DHT22;6915;48.296;8.874;2023-11-18T22:15:23;8.60;99.90
13686;DHT22;6915;48.296;8.874;2023-11-18T22:17:50;8.50;99.90
13686;DHT22;6915;48.296;8.874;2023-11-18T22:20:22;8.70;99.90
13686;DHT22;6915;48.296;8.874;2023-11-18T22:22:53;8.60;99.90
13686;DHT22;6915;48.296;8.874;2023-11-18T22:25:21;8.50;99.90
13686;DHT22;6915;48.296;8.874;2023-11-18T22:28:00;8.40;99.90
13686;DHT22;6915;48.296;8.874;2023-11-18T22:30:33;8.50;99.90
13686;DHT22;6915;48.296;8.874;2023-11-18T22:33:00;8.50;99.90
13686;DHT22;6915;48.296;8.874;2023-11-18T22:35:30;8.50;99.90
13686;DHT22;6915;48.296;8.874;2023-11-18T22:45:57;8.40;99.90
13686;DHT22;6915;48.296;8.874;2023-11-18T22:48:30;8.20;99.90
13686;DHT22;6915;48.296;8.874;2023-11-18T22:50:58;8.40;99.90
13686;DHT22;6915;48.296;8.874;2023-11-18T22:53:49;8.30;99.90
13686;DHT22;6915;48.296;8.874;2023-11-18T23:04:11;8.40;99.90
13686;DHT22;6915;48.296;8.874;2023-11-18T23:06:40;8.40;99.90
13686;DHT22;6915;48.296;8.874;2023-11-18T23:09:09;8.50;99.90
13686;DHT22;6915;48.296;8.874;2023-11-18T23:11:38;8.60;99.90
13686;DHT22;6915;48.296;8.874;2023-11-18T23:14:05;8.90;99.90
13686;DHT22;6915;48.296;8.874;2023-11-18T23:16:35;8.60;99.90
13686;DHT22;6915;48.296;8.874;2023-11-18T23:21:56;8.90;99.90
13686;DHT22;6915;48.296;8.874;2023-11-18T23:24:34;9.00;99.90
13686;DHT22;6915;48.296;8.874;2023-11-18T23:27:11;9.00;99.90
13686;DHT22;6915;48.296;8.874;2023-11-18T23:29:46;9.00;99.90
13686;DHT22;6915;48.296;8.874;2023-11-18T23:32:19;9.10;99.90
13686;DHT22;6915;48.296;8.874;2023-11-18T23:35:07;9.10;99.90
